Reeders, Pennsylvania
Current Conditions -  °F | °C
As of 5:53 AM on Sunday 26 Oct 2014 (Local Time) from KMPO Reporting Station
Clear Clear  
Wind Chill: 42°   Ceiling: Unl
Heat Index: 47°   Visibility: 10mi
Dew Point: 34°   Wind: 12mph
Humidity: 61%   Direction: 310°NW
Pressure: 29.61"   Gusts: 29mph
Location:  41.02°N, 75.34°W
Report Text: KMPO 260953Z AUTO 31010G25KT 10SM CLR 08/01 A2961 RMK AO2 SLP026 T00830011
Loading
Personal Weather Stations






























Interactive Weather Map New forecast layout! Learn more

10-Day Weather Forecast

Advertisements
Track Severe Weather on mobile